Aeroporto :
LOGIN :

Iscrizione | Disclaimer

   EN    FR    IT 

 










Sommario :    VFR   VFR Marginale   IFR   IFR Intensivo   IFR Molto Intensivo
Visibilità : 
Base nubi : 
>= 8 km
>= 3000ft
5 / 8 km
1000 / 3000 ft
1500m / 5 km
500 / 1000 ft
800 / 1500m
200 / 500 ft
< 800m
< 200 ft
Simboli :   Temporali  Nebbia  Neve Forte  Precipitazioni Forti  Vento > 20 kt
SIGMETs :   Varie  Temporali  Ghiacco  Turbolenza  Onda orograficha  Ceneri Vulcaniche






- Altitudine del aeroporto : 1017 ft


LFSL - Brive Souillac

ULTIMO METAR :
  • 211600Z AUTO 30005KT 270V340 CAVOK 13/03 Q1030 NOSIG

METARs OBSOLETI :
  • 211530Z AUTO 35006KT 310V020 CAVOK 13/03 Q1030 NOSIG
  • 211500Z AUTO VRB05KT CAVOK 13/03 Q1030 NOSIG
  • 211430Z AUTO 31005KT 270V340 9999 FEW036 13/03 Q1030 NOSIG
  • 211400Z AUTO 34004KT 310V030 CAVOK 12/02 Q1030 NOSIG
  • 211330Z AUTO VRB03KT CAVOK 13/02 Q1031 NOSIG

TAF TAF LFSL
Valido dal 21 a 15 ore il 22 a 00 ore UTC


211400Z 2115/2124 32005KT CAVOK
BECMG 2116/2118 VRB02KT



MetMap, La meteo Aeronautica in un colpo d'occhio ! - Copyright ORBIFLY Dicembre 2007 - Disclaimer

ORBIFLY MET'MAP TEAM :

Programmazione e sviluppo : Alexandra Zaïnal
Concezione : Baudouin d'Aumeries
Aiuto per la programmazione : Marc-Olivier Méhu
Supporto tecnico e logistico : Manuel Goepfert
Aiuto per la traduzione : Arnaldo La Scala

Contatto : metmap@orbifly.com




FONTI E CREDITI :

   NOAA